Time;durP1;ratioP1;P1;durP2;ratioP2;P2;SDS_P1;SDS_P2;PMS_P1;PMS_P2;Temp;Humidity;BMP_temperature;BMP_pressure;BME280_temperature;BME280_humidity;BME280_pressure;Samples;Min_cycle;Max_cycle;Signal;HPM_P1;HPM_P2
2023/01/01 00:01:47;;;;;;;;;;;;;;;15.60;53.28;100739.63;5053586;28;20291;-66
2023/01/01 00:04:13;;;;;;;;;;;;;;;15.57;54.03;100725.66;5086690;28;19917;-66
2023/01/01 00:06:39;;;;;;;;;;;;;;;15.59;53.32;100746.00;5046385;28;19955;-66
2023/01/01 00:11:48;;;;;;;;;;;;;;;15.56;53.01;100745.38;5051299;28;20518;-65
2023/01/01 00:14:14;;;;;;;;;;;;;;;15.52;52.80;100770.75;5084621;28;20027;-65
2023/01/01 00:16:39;;;;;;;;;;;;;;;15.72;52.25;100735.06;5056900;28;19966;-66
2023/01/01 00:19:05;;;;;;;;;;;;;;;15.70;51.61;100746.91;5066290;28;20319;-66
2023/01/01 00:21:30;;;;;;;;;;;;;;;15.53;52.53;100748.31;5060270;28;19919;-65
2023/01/01 00:23:55;;;;;;;;;;;;;;;15.57;52.05;100747.09;5061121;28;20305;-66
2023/01/01 00:26:21;;;;;;;;;;;;;;;15.47;52.22;100752.41;5053254;28;19917;-65
2023/01/01 00:28:46;;;;;;;;;;;;;;;15.75;51.08;100760.78;5084244;28;20015;-68
2023/01/01 00:31:20;;;;;;;;;;;;;;;15.53;52.33;100751.00;5052169;28;20371;-66
2023/01/01 00:33:50;;;;;;;;;;;;;;;15.57;51.83;100739.91;5050625;28;19913;-66
2023/01/01 00:36:17;;;;;;;;;;;;;;;15.73;51.44;100725.19;5052870;28;19917;-66
2023/01/01 00:38:43;;;;;;;;;;;;;;;15.63;51.87;100752.78;5051836;28;19909;-66
2023/01/01 00:41:09;;;;;;;;;;;;;;;15.43;53.41;100800.03;5051950;28;19916;-66
2023/01/01 00:43:34;;;;;;;;;;;;;;;15.60;52.89;100745.00;5051636;28;19908;-66
2023/01/01 00:45:59;;;;;;;;;;;;;;;15.52;52.93;100739.44;5067126;28;20344;-66
2023/01/01 00:48:26;;;;;;;;;;;;;;;15.56;52.65;100740.00;5051308;28;20376;-66
2023/01/01 00:50:52;;;;;;;;;;;;;;;15.45;53.03;100738.28;5051644;28;19991;-66
2023/01/01 00:53:17;;;;;;;;;;;;;;;15.42;53.37;100733.19;5049553;28;20045;-65
2023/01/01 00:55:43;;;;;;;;;;;;;;;15.42;52.22;100742.06;5057850;28;20287;-65
2023/01/01 00:58:09;;;;;;;;;;;;;;;15.66;51.99;100748.97;5065373;28;19917;-66
2023/01/01 01:00:35;;;;;;;;;;;;;;;15.50;52.17;100780.75;5062263;28;19912;-65
2023/01/01 01:03:00;;;;;;;;;;;;;;;15.59;51.74;100753.19;5071733;28;19923;-65
2023/01/01 01:05:25;;;;;;;;;;;;;;;15.57;52.09;100755.97;5070411;28;19957;-66
2023/01/01 01:07:51;;;;;;;;;;;;;;;15.50;52.81;100754.81;5071252;28;19999;-66
2023/01/01 01:10:16;;;;;;;;;;;;;;;15.46;52.32;100761.41;5069406;28;19919;-66
2023/01/01 01:12:41;;;;;;;;;;;;;;;15.46;52.66;100761.41;5069580;28;19908;-66
2023/01/01 01:15:10;;;;;;;;;;;;;;;15.49;52.74;100747.75;5069339;28;19912;-66
2023/01/01 01:17:36;;;;;;;;;;;;;;;15.35;53.44;100748.94;5052579;28;20091;-66
2023/01/01 01:20:02;;;;;;;;;;;;;;;15.32;53.65;100751.00;5055183;28;20145;-66
2023/01/01 01:22:27;;;;;;;;;;;;;;;15.36;53.28;100753.31;5064180;28;19918;-66
2023/01/01 01:24:52;;;;;;;;;;;;;;;15.41;52.87;100752.91;5073258;28;19928;-66
2023/01/01 01:27:18;;;;;;;;;;;;;;;15.32;53.42;100751.84;5090869;28;19928;-66
2023/01/01 01:29:43;;;;;;;;;;;;;;;15.34;53.14;100762.44;5090147;28;19919;-64
2023/01/01 01:32:09;;;;;;;;;;;;;;;15.30;52.27;100766.38;5089152;28;20375;-66
2023/01/01 01:34:35;;;;;;;;;;;;;;;15.29;53.25;100786.09;5055813;28;19960;-66
2023/01/01 01:37:00;;;;;;;;;;;;;;;15.25;52.92;100774.78;5054787;28;19917;-66
2023/01/01 01:39:26;;;;;;;;;;;;;;;15.19;53.43;100769.94;5054511;28;19908;-66
2023/01/01 01:41:51;;;;;;;;;;;;;;;15.12;53.55;100782.16;5054978;28;19979;-65
2023/01/01 01:44:35;;;;;;;;;;;;;;;15.11;53.25;100770.59;5054551;28;19916;-66
2023/01/01 01:47:03;;;;;;;;;;;;;;;15.02;53.65;100774.03;5056775;28;19912;-65
2023/01/01 01:49:30;;;;;;;;;;;;;;;15.02;53.92;100782.06;5094644;28;19925;-66
2023/01/01 01:51:55;;;;;;;;;;;;;;;14.96;52.96;100793.28;5054834;28;19935;-66
2023/01/01 01:54:22;;;;;;;;;;;;;;;15.03;53.06;100786.47;5054118;28;19917;-65
2023/01/01 01:56:51;;;;;;;;;;;;;;;14.99;53.66;100782.31;5054653;28;19956;-65
2023/01/01 01:59:18;;;;;;;;;;;;;;;15.03;53.55;100797.19;5054526;28;19908;-65
2023/01/01 02:01:44;;;;;;;;;;;;;;;14.92;53.35;100805.25;5053695;28;19909;-65
2023/01/01 02:04:10;;;;;;;;;;;;;;;15.04;53.28;100806.91;5070434;28;19924;-65
2023/01/01 02:06:38;;;;;;;;;;;;;;;14.91;52.85;100796.38;5072927;28;19915;-65
2023/01/01 02:09:07;;;;;;;;;;;;;;;14.89;53.50;100816.19;5073983;28;19931;-65
2023/01/01 02:11:36;;;;;;;;;;;;;;;14.87;53.42;100805.59;5066800;28;19951;-65
2023/01/01 02:14:01;;;;;;;;;;;;;;;14.84;53.47;100813.03;5069061;28;19924;-65
2023/01/01 02:16:32;;;;;;;;;;;;;;;14.84;53.61;100818.41;5054266;28;19908;-65
2023/01/01 02:19:18;;;;;;;;;;;;;;;14.96;53.10;100814.72;5054244;28;20007;-66
2023/01/01 02:21:43;;;;;;;;;;;;;;;14.84;52.78;100813.03;5042613;28;19913;-65
2023/01/01 02:24:30;;;;;;;;;;;;;;;14.79;53.95;100799.16;5053923;28;20290;-66
2023/01/01 02:27:01;;;;;;;;;;;;;;;14.96;53.13;100810.19;5055427;28;19917;-65
2023/01/01 02:29:44;;;;;;;;;;;;;;;14.86;53.64;100828.00;5071156;28;19920;-66
2023/01/01 02:32:09;;;;;;;;;;;;;;;14.73;53.90;100817.44;5073195;28;20013;-66
2023/01/01 02:34:37;;;;;;;;;;;;;;;15.05;52.61;100821.16;5054681;28;19916;-66
2023/01/01 02:37:05;;;;;;;;;;;;;;;14.77;52.79;100805.50;5054441;28;19917;-66
2023/01/01 02:39:33;;;;;;;;;;;;;;;14.90;53.01;100813.38;5052201;28;19908;-66
2023/01/01 02:41:59;;;;;;;;;;;;;;;14.76;53.26;100816.34;5053921;28;19940;-66
2023/01/01 02:44:25;;;;;;;;;;;;;;;14.75;53.63;100809.28;5052710;28;19916;-66
2023/01/01 02:46:51;;;;;;;;;;;;;;;14.71;53.50;100810.53;5073668;28;19912;-65
2023/01/01 02:49:17;;;;;;;;;;;;;;;14.74;54.14;100816.47;5065137;28;19912;-65
2023/01/01 02:52:03;;;;;;;;;;;;;;;14.74;54.31;100834.38;5085814;28;19952;-66
2023/01/01 02:54:32;;;;;;;;;;;;;;;14.94;53.45;100812.19;5071173;28;19975;-66
2023/01/01 02:57:06;;;;;;;;;;;;;;;14.65;54.54;100825.25;5073374;28;19908;-66
2023/01/01 03:02:26;;;;;;;;;;;;;;;14.88;54.15;100831.44;5073399;28;19923;-66
2023/01/01 03:05:06;;;;;;;;;;;;;;;14.68;55.03;100825.00;5070603;28;19912;-65
2023/01/01 03:07:42;;;;;;;;;;;;;;;14.72;54.56;100831.81;5073258;28;19973;-66
2023/01/01 03:10:16;;;;;;;;;;;;;;;14.70;54.97;100838.25;5072557;28;19908;-66
2023/01/01 03:12:58;;;;;;;;;;;;;;;14.60;55.54;100831.94;5072767;28;20010;-66
2023/01/01 03:15:28;;;;;;;;;;;;;;;14.53;55.79;100829.75;5052590;28;20379;-66
2023/01/01 03:17:56;;;;;;;;;;;;;;;14.61;54.83;100850.53;5052733;28;20338;-65
2023/01/01 03:20:26;;;;;;;;;;;;;;;14.62;55.52;100820.16;5053303;28;19909;-66
2023/01/01 03:22:53;;;;;;;;;;;;;;;14.72;55.09;100852.38;5053545;28;20283;-65
2023/01/01 03:25:21;;;;;;;;;;;;;;;14.61;56.12;100839.00;5053761;28;19963;-66
2023/01/01 03:27:53;;;;;;;;;;;;;;;14.71;55.36;100845.31;5070445;28;19924;-65
2023/01/01 03:30:20;;;;;;;;;;;;;;;14.58;56.21;100844.59;5071551;28;19912;-66
2023/01/01 03:32:59;;;;;;;;;;;;;;;14.54;56.22;100841.31;5069949;28;20007;-66
2023/01/01 03:35:29;;;;;;;;;;;;;;;14.53;56.54;100831.59;5037404;28;19925;-65
2023/01/01 03:37:56;;;;;;;;;;;;;;;14.47;56.95;100843.59;5052688;28;20327;-66
2023/01/01 03:40:23;;;;;;;;;;;;;;;14.59;56.52;100851.63;5051405;28;19915;-66
2023/01/01 03:42:50;;;;;;;;;;;;;;;14.60;56.34;100850.69;5051492;28;19978;-66
2023/01/01 03:45:18;;;;;;;;;;;;;;;14.59;56.01;100836.47;5054333;28;19944;-66
2023/01/01 03:47:44;;;;;;;;;;;;;;;14.59;56.25;100855.19;5051309;28;19912;-66
2023/01/01 03:50:09;;;;;;;;;;;;;;;14.52;56.60;100868.19;5052399;28;19919;-66
2023/01/01 03:52:50;;;;;;;;;;;;;;;14.68;56.12;100862.47;5062183;28;19912;-66
2023/01/01 03:55:30;;;;;;;;;;;;;;;14.47;57.46;100866.81;5063254;28;19924;-66
2023/01/01 03:58:06;;;;;;;;;;;;;;;14.43;57.15;100862.69;5052557;28;20354;-66
2023/01/01 04:00:45;;;;;;;;;;;;;;;14.59;56.83;100857.00;5051054;28;19909;-66
2023/01/01 04:03:17;;;;;;;;;;;;;;;14.61;56.76;100880.00;5051528;28;19915;-65
2023/01/01 04:05:43;;;;;;;;;;;;;;;14.49;57.45;100887.13;5052518;28;19959;-65
2023/01/01 04:08:09;;;;;;;;;;;;;;;14.51;57.43;100879.88;5056152;28;19940;-65
2023/01/01 04:10:36;;;;;;;;;;;;;;;14.52;57.29;100899.47;5053396;28;19918;-65
2023/01/01 04:13:02;;;;;;;;;;;;;;;14.54;57.33;100892.16;5062889;28;19943;-66
2023/01/01 04:15:27;;;;;;;;;;;;;;;14.39;58.34;100893.34;5052093;28;19912;-66
2023/01/01 04:17:53;;;;;;;;;;;;;;;14.44;58.02;100880.44;5067321;28;19962;-66
2023/01/01 04:20:19;;;;;;;;;;;;;;;14.40;58.26;100889.69;5055142;28;20376;-66
2023/01/01 04:22:47;;;;;;;;;;;;;;;14.35;58.60;100884.69;5052377;28;19912;-65
2023/01/01 04:25:13;;;;;;;;;;;;;;;14.33;58.76;100889.34;5051979;28;19915;-66
2023/01/01 04:27:39;;;;;;;;;;;;;;;14.50;58.24;100872.81;5051747;28;19917;-66
2023/01/01 04:30:05;;;;;;;;;;;;;;;14.54;58.08;100863.56;5083839;28;20435;-65
2023/01/01 04:32:31;;;;;;;;;;;;;;;14.29;59.34;100869.13;5051969;28;19909;-66
2023/01/01 04:34:56;;;;;;;;;;;;;;;14.41;58.76;100883.34;5051485;28;19966;-65
2023/01/01 04:37:21;;;;;;;;;;;;;;;14.33;59.13;100897.34;5084116;28;20290;-66
2023/01/01 04:39:49;;;;;;;;;;;;;;;14.41;58.95;100891.38;5051241;28;20003;-66
2023/01/01 04:42:14;;;;;;;;;;;;;;;14.26;59.86;100904.13;5081698;28;19916;-66
2023/01/01 04:44:40;;;;;;;;;;;;;;;14.28;60.01;100910.22;5094768;28;20298;-66
2023/01/01 04:47:07;;;;;;;;;;;;;;;14.35;59.58;100910.59;5067036;28;20071;-66
2023/01/01 04:49:32;;;;;;;;;;;;;;;14.26;60.12;100905.00;5069045;28;19916;-66
2023/01/01 04:51:58;;;;;;;;;;;;;;;14.32;60.02;100909.88;5067351;28;20291;-65
2023/01/01 04:54:24;;;;;;;;;;;;;;;14.18;60.83;100910.09;5071219;28;19919;-65
2023/01/01 04:56:49;;;;;;;;;;;;;;;14.16;60.88;100917.38;5070751;28;19920;-66
2023/01/01 04:59:15;;;;;;;;;;;;;;;14.11;61.17;100906.19;5072199;28;19913;-66
2023/01/01 05:01:40;;;;;;;;;;;;;;;14.19;60.89;100917.16;5072598;28;19920;-66
2023/01/01 05:04:06;;;;;;;;;;;;;;;14.10;61.32;100920.53;5073019;28;20186;-66
2023/01/01 05:06:31;;;;;;;;;;;;;;;14.14;61.20;100935.38;5072211;28;19913;-65
2023/01/01 05:08:58;;;;;;;;;;;;;;;14.15;61.26;100942.44;5093210;28;19916;-66
2023/01/01 05:11:25;;;;;;;;;;;;;;;14.13;61.55;100946.19;5072957;28;19915;-66
2023/01/01 05:13:51;;;;;;;;;;;;;;;14.18;61.47;100939.53;5069765;28;19958;-66
2023/01/01 05:16:22;;;;;;;;;;;;;;;14.17;61.25;100934.28;5073202;28;19916;-66
2023/01/01 05:18:47;;;;;;;;;;;;;;;14.19;61.40;100941.22;5059902;28;19916;-65
2023/01/01 05:21:17;;;;;;;;;;;;;;;14.22;61.53;100956.19;5073647;28;19912;-66
2023/01/01 05:23:42;;;;;;;;;;;;;;;14.04;62.70;100971.81;5075353;28;19998;-66
2023/01/01 05:26:12;;;;;;;;;;;;;;;14.01;62.84;100970.22;5102410;28;20007;-65
2023/01/01 05:28:38;;;;;;;;;;;;;;;13.98;62.94;100988.34;5072550;28;19916;-65
2023/01/01 05:31:07;;;;;;;;;;;;;;;14.06;62.55;100989.47;5072826;28;19920;-66
2023/01/01 05:33:33;;;;;;;;;;;;;;;14.20;61.85;100991.06;5091891;28;19913;-66
2023/01/01 05:35:58;;;;;;;;;;;;;;;14.16;62.26;100994.97;5074110;28;19985;-66
2023/01/01 05:38:23;;;;;;;;;;;;;;;14.07;62.91;100998.34;5068029;28;19924;-65
2023/01/01 05:40:49;;;;;;;;;;;;;;;14.00;63.18;100997.06;5054805;28;20272;-66
2023/01/01 05:43:15;;;;;;;;;;;;;;;13.90;63.55;100988.91;5054967;28;21231;-66
2023/01/01 05:45:40;;;;;;;;;;;;;;;13.92;63.83;101004.84;5070372;28;19912;-65
2023/01/01 05:48:06;;;;;;;;;;;;;;;13.99;63.31;101006.06;5070020;28;19916;-66
2023/01/01 05:50:31;;;;;;;;;;;;;;;13.93;63.79;100999.34;5072222;28;20313;-65
2023/01/01 05:53:02;;;;;;;;;;;;;;;13.98;63.66;101020.41;5062082;28;19943;-66
2023/01/01 05:55:27;;;;;;;;;;;;;;;13.98;63.72;101012.41;5055419;28;19920;-66
2023/01/01 05:57:53;;;;;;;;;;;;;;;13.88;64.06;101022.06;5053107;28;19908;-66
2023/01/01 06:00:18;;;;;;;;;;;;;;;13.95;63.72;101034.88;5054517;28;20303;-65
2023/01/01 06:02:43;;;;;;;;;;;;;;;13.92;64.01;101037.78;5086006;28;20003;-65
2023/01/01 06:05:09;;;;;;;;;;;;;;;13.82;64.26;101031.38;5068632;28;19951;-65
2023/01/01 06:07:34;;;;;;;;;;;;;;;13.90;64.11;101028.16;5074564;28;20379;-66
2023/01/01 06:10:02;;;;;;;;;;;;;;;13.90;64.18;101037.03;5074152;28;20380;-66
2023/01/01 06:12:27;;;;;;;;;;;;;;;13.84;64.45;101048.19;5074431;28;19916;-66
2023/01/01 06:14:53;;;;;;;;;;;;;;;13.80;65.09;101046.69;5064254;28;19983;-66
2023/01/01 06:17:18;;;;;;;;;;;;;;;13.99;63.83;101047.03;5054451;28;19912;-65
2023/01/01 06:19:43;;;;;;;;;;;;;;;13.95;64.11;101063.44;5055280;28;20368;-66
2023/01/01 06:22:08;;;;;;;;;;;;;;;14.01;63.89;101054.97;5052419;28;19917;-66
2023/01/01 06:24:34;;;;;;;;;;;;;;;13.95;64.12;101060.75;5053749;28;19913;-65
2023/01/01 06:27:00;;;;;;;;;;;;;;;13.80;65.11;101073.44;5063419;28;19912;-65
2023/01/01 06:29:25;;;;;;;;;;;;;;;13.68;67.00;101087.66;5074196;28;20285;-65
2023/01/01 06:31:51;;;;;;;;;;;;;;;13.58;68.37;101095.50;5068309;28;20006;-65
2023/01/01 06:34:17;;;;;;;;;;;;;;;13.47;71.76;101111.44;5053012;28;20348;-66
2023/01/01 06:36:44;;;;;;;;;;;;;;;13.28;72.70;101112.75;5060523;28;19920;-65
2023/01/01 06:39:10;;;;;;;;;;;;;;;13.10;75.70;101122.88;5073444;28;20295;-66
2023/01/01 06:41:35;;;;;;;;;;;;;;;13.13;74.31;101124.47;5092903;28;20323;-66
2023/01/01 06:44:00;;;;;;;;;;;;;;;12.81;77.96;101132.03;5085847;28;20283;-65
2023/01/01 06:46:28;;;;;;;;;;;;;;;12.73;77.68;101138.75;5094854;28;19920;-66
2023/01/01 06:48:57;;;;;;;;;;;;;;;12.74;76.57;101139.59;5073648;28;19942;-65
2023/01/01 06:51:23;;;;;;;;;;;;;;;12.74;78.89;101139.59;5101568;28;19938;-66
2023/01/01 06:53:50;;;;;;;;;;;;;;;12.69;79.78;101152.41;5066079;28;20314;-65
2023/01/01 06:56:16;;;;;;;;;;;;;;;12.42;82.03;101163.09;5073812;28;20007;-65
2023/01/01 06:58:41;;;;;;;;;;;;;;;12.29;83.89;101160.34;5073625;28;19908;-65
2023/01/01 07:01:14;;;;;;;;;;;;;;;12.25;82.33;101153.53;5087252;28;19959;-65
2023/01/01 07:03:43;;;;;;;;;;;;;;;12.27;80.04;101154.28;5073602;28;19909;-65
2023/01/01 07:06:09;;;;;;;;;;;;;;;12.43;80.23;101168.31;5068622;28;19919;-66
2023/01/01 07:08:34;;;;;;;;;;;;;;;12.15;83.50;101179.94;5088531;28;19908;-65
2023/01/01 07:11:00;;;;;;;;;;;;;;;12.13;82.80;101176.50;5069055;28;19912;-66
2023/01/01 07:13:28;;;;;;;;;;;;;;;12.17;83.84;101179.81;5051959;28;20248;-65
2023/01/01 07:15:54;;;;;;;;;;;;;;;12.02;85.23;101195.84;5053240;28;20376;-65
2023/01/01 07:18:21;;;;;;;;;;;;;;;12.01;85.75;101191.47;5053489;28;19936;-66
2023/01/01 07:20:51;;;;;;;;;;;;;;;11.89;86.88;101183.41;5060472;28;20386;-66
2023/01/01 07:23:17;;;;;;;;;;;;;;;11.97;83.62;101183.75;5067333;28;20348;-66
2023/01/01 07:25:42;;;;;;;;;;;;;;;11.89;83.77;101178.06;5070142;28;20004;-65
2023/01/01 07:28:08;;;;;;;;;;;;;;;11.87;84.04;101188.81;5105714;28;19923;-65
2023/01/01 07:30:33;;;;;;;;;;;;;;;11.77;85.48;101187.66;5099616;28;19951;-66
2023/01/01 07:32:58;;;;;;;;;;;;;;;11.78;84.53;101192.88;5052850;28;19913;-65
2023/01/01 07:35:24;;;;;;;;;;;;;;;11.82;84.22;101194.44;5052924;28;19909;-66
2023/01/01 07:37:50;;;;;;;;;;;;;;;11.84;82.79;101207.63;5052587;28;19916;-66
2023/01/01 07:40:15;;;;;;;;;;;;;;;11.85;82.97;101208.50;5062208;28;20348;-66
2023/01/01 07:42:42;;;;;;;;;;;;;;;11.90;85.17;101209.94;5068863;28;20007;-66
2023/01/01 07:45:10;;;;;;;;;;;;;;;11.78;85.57;101214.19;5071368;28;19913;-65
2023/01/01 07:47:36;;;;;;;;;;;;;;;11.78;84.24;101221.34;5071508;28;19908;-65
2023/01/01 07:50:01;;;;;;;;;;;;;;;11.77;85.30;101230.31;5071111;28;19938;-66
2023/01/01 07:52:26;;;;;;;;;;;;;;;11.72;87.45;101222.59;5052263;28;20267;-66
2023/01/01 07:54:52;;;;;;;;;;;;;;;11.71;87.33;101234.19;5084270;28;19959;-66
2023/01/01 07:57:18;;;;;;;;;;;;;;;11.65;87.24;101234.59;5060395;28;20065;-65
2023/01/01 07:59:43;;;;;;;;;;;;;;;11.60;91.05;101244.66;5072069;28;19920;-66
2023/01/01 08:02:10;;;;;;;;;;;;;;;11.55;88.66;101252.91;5064461;28;20271;-65
2023/01/01 08:04:36;;;;;;;;;;;;;;;11.54;90.69;101266.34;5071229;28;20244;-65
2023/01/01 08:07:01;;;;;;;;;;;;;;;11.52;89.68;101277.06;5079524;28;19999;-66
2023/01/01 08:09:28;;;;;;;;;;;;;;;11.51;91.87;101294.03;5051980;28;20387;-65
2023/01/01 08:11:57;;;;;;;;;;;;;;;11.62;88.24;101287.19;5084217;28;20364;-66
2023/01/01 08:14:22;;;;;;;;;;;;;;;11.55;88.13;101278.69;5060704;28;20405;-66
2023/01/01 08:16:47;;;;;;;;;;;;;;;11.56;90.42;101285.78;5088006;28;20013;-66
2023/01/01 08:19:13;;;;;;;;;;;;;;;11.55;90.51;101290.22;5069151;28;20003;-66
2023/01/01 08:21:38;;;;;;;;;;;;;;;11.49;92.19;101289.72;5072090;28;19912;-66
2023/01/01 08:24:04;;;;;;;;;;;;;;;11.45;90.74;101281.06;5104227;28;19919;-65
2023/01/01 08:26:30;;;;;;;;;;;;;;;11.52;89.15;101287.72;5071679;28;19921;-65
2023/01/01 08:28:56;;;;;;;;;;;;;;;11.55;89.45;101281.38;5065838;28;19913;-66
2023/01/01 08:31:21;;;;;;;;;;;;;;;11.50;90.99;101281.66;5055071;28;20268;-65
2023/01/01 08:33:47;;;;;;;;;;;;;;;11.46;91.39;101295.25;5051898;28;19936;-66
2023/01/01 08:36:13;;;;;;;;;;;;;;;11.48;89.16;101296.88;5051870;28;19916;-65
2023/01/01 08:38:38;;;;;;;;;;;;;;;11.50;89.34;101305.63;5050200;28;19943;-66
2023/01/01 08:41:04;;;;;;;;;;;;;;;11.43;90.81;101316.72;5083491;28;19967;-66
2023/01/01 08:43:30;;;;;;;;;;;;;;;11.53;89.67;101320.56;5052455;28;20348;-66
2023/01/01 08:45:56;;;;;;;;;;;;;;;11.42;90.38;101329.19;5051870;28;19915;-66
2023/01/01 08:48:22;;;;;;;;;;;;;;;11.41;89.99;101316.81;5050913;28;19913;-66
2023/01/01 08:50:54;;;;;;;;;;;;;;;11.44;89.95;101305.13;5052381;28;19912;-65
2023/01/01 08:53:19;;;;;;;;;;;;;;;11.49;89.65;101316.38;5050985;28;19939;-65
2023/01/01 08:55:53;;;;;;;;;;;;;;;11.46;90.90;101328.06;5051776;28;19912;-65
2023/01/01 08:58:18;;;;;;;;;;;;;;;11.43;92.45;101324.72;5049634;28;19956;-65
2023/01/01 09:00:44;;;;;;;;;;;;;;;11.40;92.15;101333.75;5066249;28;20001;-65
2023/01/01 09:03:09;;;;;;;;;;;;;;;11.47;91.62;101329.78;5068292;28;19999;-66
2023/01/01 09:05:35;;;;;;;;;;;;;;;11.38;93.64;101311.66;5104185;28;20432;-66
2023/01/01 09:08:01;;;;;;;;;;;;;;;11.37;91.67;101308.16;5063862;28;20383;-66
2023/01/01 09:10:28;;;;;;;;;;;;;;;11.42;91.61;101318.53;5064257;28;19951;-66
2023/01/01 09:12:54;;;;;;;;;;;;;;;11.48;92.28;101323.50;5065283;28;19912;-65
2023/01/01 09:15:19;;;;;;;;;;;;;;;11.53;90.68;101337.41;5049348;28;20479;-66
2023/01/01 09:17:45;;;;;;;;;;;;;;;11.59;91.41;101345.03;5065993;28;19978;-65
2023/01/01 09:20:10;;;;;;;;;;;;;;;11.62;90.37;101349.34;5048317;28;20358;-65
2023/01/01 09:22:36;;;;;;;;;;;;;;;11.66;89.57;101340.19;5050301;28;19956;-65
2023/01/01 09:25:02;;;;;;;;;;;;;;;11.69;90.37;101323.19;5050461;28;19912;-66
2023/01/01 09:27:27;;;;;;;;;;;;;;;11.71;89.55;101324.81;5049075;28;19967;-66
2023/01/01 09:29:53;;;;;;;;;;;;;;;11.72;89.56;101329.16;5051276;28;19931;-66
2023/01/01 09:32:18;;;;;;;;;;;;;;;11.73;89.98;101340.69;5051637;28;19921;-66
2023/01/01 09:34:44;;;;;;;;;;;;;;;11.72;91.33;101346.97;5035156;28;19921;-65
2023/01/01 09:37:09;;;;;;;;;;;;;;;11.70;91.97;101343.53;5054519;28;20328;-65
2023/01/01 09:39:34;;;;;;;;;;;;;;;11.68;90.63;101346.31;5071108;28;20265;-66
2023/01/01 09:42:09;;;;;;;;;;;;;;;11.65;91.21;101358.94;5070495;28;20393;-66
2023/01/01 09:44:34;;;;;;;;;;;;;;;11.65;90.91;101345.59;5073740;28;19909;-66
2023/01/01 09:47:01;;;;;;;;;;;;;;;11.66;90.78;101339.34;5056459;28;19919;-66
2023/01/01 09:49:32;;;;;;;;;;;;;;;11.67;89.69;101346.38;5069667;28;19920;-66
2023/01/01 09:52:00;;;;;;;;;;;;;;;11.68;91.97;101348.13;5068452;28;19913;-65
2023/01/01 09:54:32;;;;;;;;;;;;;;;11.67;90.59;101349.91;5070040;28;19923;-66
2023/01/01 09:56:58;;;;;;;;;;;;;;;11.69;90.60;101356.00;5071677;28;19920;-66
2023/01/01 09:59:24;;;;;;;;;;;;;;;11.66;90.46;101356.19;5059708;28;19963;-66
2023/01/01 10:02:12;;;;;;;;;;;;;;;11.66;91.27;101350.00;5052895;28;20445;-65
2023/01/01 10:04:41;;;;;;;;;;;;;;;11.66;90.11;101345.53;5045113;28;19919;-65
2023/01/01 10:07:25;;;;;;;;;;;;;;;11.69;89.64;101341.81;5074769;28;20405;-65
2023/01/01 10:09:50;;;;;;;;;;;;;;;11.66;90.55;101350.84;5057571;28;19920;-66
2023/01/01 10:12:25;;;;;;;;;;;;;;;11.65;91.00;101349.16;5072938;28;19916;-65
2023/01/01 10:14:54;;;;;;;;;;;;;;;11.66;89.47;101342.00;5062155;28;19917;-65
2023/01/01 10:17:29;;;;;;;;;;;;;;;11.66;90.95;101342.88;5054788;28;19963;-66
2023/01/01 10:20:00;;;;;;;;;;;;;;;11.67;91.43;101347.22;5060659;28;19912;-65
2023/01/01 10:22:34;;;;;;;;;;;;;;;11.71;89.45;101346.13;5074330;28;20054;-65
2023/01/01 10:25:03;;;;;;;;;;;;;;;11.70;91.99;101348.84;5073617;28;19909;-66
2023/01/01 10:27:30;;;;;;;;;;;;;;;11.71;90.99;101354.13;5073453;28;19920;-66
2023/01/01 10:29:58;;;;;;;;;;;;;;;11.76;90.19;101351.16;5074133;28;19912;-65
2023/01/01 10:32:24;;;;;;;;;;;;;;;11.81;90.56;101352.59;5070247;28;20429;-66
2023/01/01 10:34:49;;;;;;;;;;;;;;;11.83;91.28;101356.03;5071484;28;19913;-66
2023/01/01 10:37:16;;;;;;;;;;;;;;;11.88;91.62;101358.44;5066819;28;19916;-65
2023/01/01 10:39:42;;;;;;;;;;;;;;;11.97;90.02;101347.25;5091492;28;19916;-65
2023/01/01 10:42:09;;;;;;;;;;;;;;;12.05;89.11;101349.44;5054143;28;19908;-65
2023/01/01 10:44:35;;;;;;;;;;;;;;;12.08;89.58;101340.38;5051769;28;19924;-66
2023/01/01 10:47:23;;;;;;;;;;;;;;;12.15;89.74;101347.94;5053779;28;19909;-66
2023/01/01 10:49:55;;;;;;;;;;;;;;;12.36;88.68;101351.06;5060417;28;19935;-65
2023/01/01 10:52:24;;;;;;;;;;;;;;;12.41;88.30;101351.66;5062237;28;20325;-65
2023/01/01 10:54:49;;;;;;;;;;;;;;;12.48;88.60;101349.44;5062849;28;20257;-65
2023/01/01 10:57:17;;;;;;;;;;;;;;;12.68;86.79;101342.84;5073586;28;19935;-65
2023/01/01 10:59:46;;;;;;;;;;;;;;;12.65;86.76;101340.38;5061346;28;19917;-66
2023/01/01 11:02:25;;;;;;;;;;;;;;;12.75;86.67;101361.97;5052980;28;19975;-66
2023/01/01 11:04:52;;;;;;;;;;;;;;;12.90;86.07;101356.50;5073115;28;19908;-66
2023/01/01 11:07:17;;;;;;;;;;;;;;;12.88;85.47;101358.44;5073465;28;19916;-66
2023/01/01 11:09:49;;;;;;;;;;;;;;;12.89;84.87;101360.13;5071596;28;19909;-66
2023/01/01 11:12:20;;;;;;;;;;;;;;;12.82;85.88;101365.97;5104876;28;19958;-65
2023/01/01 11:14:50;;;;;;;;;;;;;;;12.89;85.43;101365.47;5053518;28;19934;-66
2023/01/01 11:17:22;;;;;;;;;;;;;;;13.00;83.67;101364.78;5083397;28;20372;-66
2023/01/01 11:19:48;;;;;;;;;;;;;;;12.87;84.46;101367.38;5050921;28;19913;-67
2023/01/01 11:22:32;;;;;;;;;;;;;;;12.89;84.13;101380.66;5052193;28;19916;-65
2023/01/01 11:24:59;;;;;;;;;;;;;;;12.82;84.55;101381.97;5053683;28;20321;-66
2023/01/01 11:27:27;;;;;;;;;;;;;;;12.82;84.02;101385.50;5073103;28;19955;-66
2023/01/01 11:30:12;;;;;;;;;;;;;;;12.80;84.27;101383.91;5072592;28;20304;-66
2023/01/01 11:32:38;;;;;;;;;;;;;;;12.88;83.93;101373.56;5065622;28;19959;-66
2023/01/01 11:35:05;;;;;;;;;;;;;;;12.91;82.97;101373.38;5052755;28;19952;-65
2023/01/01 11:37:32;;;;;;;;;;;;;;;12.96;83.21;101369.44;5052742;28;19967;-65
2023/01/01 11:40:01;;;;;;;;;;;;;;;13.09;82.61;101374.03;5050213;28;20368;-66
2023/01/01 11:42:29;;;;;;;;;;;;;;;13.10;82.53;101378.41;5055239;28;19916;-66
2023/01/01 11:44:59;;;;;;;;;;;;;;;13.07;82.64;101354.56;5068008;28;19983;-66
2023/01/01 11:47:30;;;;;;;;;;;;;;;13.06;82.40;101358.16;5052977;28;20379;-66
2023/01/01 11:50:18;;;;;;;;;;;;;;;13.06;80.92;101353.72;5057107;28;20493;-66
2023/01/01 11:52:45;;;;;;;;;;;;;;;13.05;81.49;101375.16;5065363;28;20363;-66
2023/01/01 11:55:23;;;;;;;;;;;;;;;13.10;79.52;101368.56;5058807;28;19922;-66
2023/01/01 11:57:55;;;;;;;;;;;;;;;13.08;80.49;101377.63;5052441;28;19996;-66
2023/01/01 12:00:21;;;;;;;;;;;;;;;13.09;79.54;101368.69;5051846;28;19915;-65
2023/01/01 12:02:49;;;;;;;;;;;;;;;12.92;80.29;101341.25;5065543;28;19916;-65
2023/01/01 12:05:14;;;;;;;;;;;;;;;13.05;80.73;101367.16;5070936;28;19908;-66
2023/01/01 12:07:42;;;;;;;;;;;;;;;13.11;78.61;101372.94;5059916;28;19974;-65
2023/01/01 12:10:22;;;;;;;;;;;;;;;13.21;78.35;101373.22;5071633;28;20014;-66
2023/01/01 12:12:59;;;;;;;;;;;;;;;13.37;78.14;101373.09;5057723;28;19919;-66
2023/01/01 12:15:27;;;;;;;;;;;;;;;13.27;79.26;101363.97;5051535;28;19913;-66
2023/01/01 12:18:16;;;;;;;;;;;;;;;13.49;77.34;101356.22;5051821;28;19957;-66
2023/01/01 12:20:49;;;;;;;;;;;;;;;13.39;78.86;101355.13;5054967;28;20006;-65
2023/01/01 12:23:15;;;;;;;;;;;;;;;13.52;77.93;101360.50;5056491;28;20000;-66
2023/01/01 12:25:43;;;;;;;;;;;;;;;13.66;76.03;101363.13;5058703;28;19958;-66
2023/01/01 12:28:31;;;;;;;;;;;;;;;13.69;75.62;101357.56;5056077;28;19916;-65
2023/01/01 12:31:05;;;;;;;;;;;;;;;13.70;76.32;101361.94;5072161;28;19953;-66
2023/01/01 12:33:37;;;;;;;;;;;;;;;13.75;75.24;101354.47;5062632;28;19917;-65
2023/01/01 12:36:06;;;;;;;;;;;;;;;13.82;74.94;101352.22;5062076;28;19942;-65
2023/01/01 12:38:41;;;;;;;;;;;;;;;13.80;75.20;101354.16;5071212;28;19920;-65
2023/01/01 12:41:21;;;;;;;;;;;;;;;13.77;73.80;101352.56;5066152;28;19912;-66
2023/01/01 12:44:00;;;;;;;;;;;;;;;13.68;74.14;101358.53;5061984;28;19994;-65
2023/01/01 12:46:36;;;;;;;;;;;;;;;13.70;74.79;101366.44;5084543;28;19920;-66